Terminal Aerodrome Forecast
Issued by NWS Jackson, KY

Home | Current Version | Previous Version | Text Only | Print | Product List | Glossary On
Versions: 1 2 3 4 5 6 7 8 9 10 11 12 13 14 15
000
FTUS43 KJKL 261739
TAFLOZ
TAF
KLOZ 261739Z 2618/2718 26010G20KT P6SM VCSH SCT020 BKN040
     FM262000 32009G15KT 3SM -RA BR OVC009
     FM270400 35006KT 6SM -RA SCT007 BKN010
     FM270900 35005KT 6SM BR SCT007 SCT010
     FM271400 01008KT P6SM BKN025=

USA.gov is the U.S. government's official web portal to all federal, state and local government web resources and services.